Time;durP1;ratioP1;P1;durP2;ratioP2;P2;SDS_P1;SDS_P2;PMS_P1;PMS_P2;Temp;Humidity;BMP_temperature;BMP_pressure;BME280_temperature;BME280_humidity;BME280_pressure;Samples;Min_cycle;Max_cycle;Signal;HPM_P1;HPM_P2
2021/12/14 00:02:11;;;;;;;0.30;0.30;;;;;;;6.47;100.00;101827.59;4996098;28;20505;-86
2021/12/14 00:04:39;;;;;;;0.30;0.30;;;;;;;6.50;100.00;101829.03;4997570;28;20042;-85
2021/12/14 00:07:16;;;;;;;0.22;0.22;;;;;;;6.59;100.00;101831.22;4991242;28;20051;-88
2021/12/14 00:09:46;;;;;;;0.30;0.30;;;;;;;6.45;100.00;101827.03;4993430;28;20065;-87
2021/12/14 00:12:35;;;;;;;0.30;0.30;;;;;;;6.52;100.00;101841.28;4998163;28;20046;-86
2021/12/14 00:15:09;;;;;;;0.20;0.20;;;;;;;6.51;100.00;101838.81;5001634;28;20633;-87
2021/12/14 00:17:42;;;;;;;0.30;0.30;;;;;;;6.60;100.00;101842.88;4996787;28;20046;-87
2021/12/14 00:20:22;;;;;;;0.20;0.20;;;;;;;6.60;100.00;101846.41;4992726;28;20395;-89
2021/12/14 00:25:51;;;;;;;0.20;0.20;;;;;;;6.58;100.00;101831.47;4994286;28;20046;-86
2021/12/14 00:28:28;;;;;;;0.20;0.20;;;;;;;6.57;100.00;101838.75;5000744;28;20204;-87
2021/12/14 00:31:09;;;;;;;0.30;0.30;;;;;;;6.59;100.00;101833.13;4994031;28;20398;-87
2021/12/14 00:33:46;;;;;;;0.25;0.25;;;;;;;6.62;100.00;101819.94;4994016;28;20046;-89
2021/12/14 00:36:14;;;;;;;0.22;0.22;;;;;;;6.60;100.00;101813.97;4988817;28;20055;-88
2021/12/14 00:38:49;;;;;;;0.20;0.20;;;;;;;6.57;100.00;101813.56;4995119;28;20475;-89
2021/12/14 00:41:31;;;;;;;0.30;0.30;;;;;;;6.66;100.00;101819.50;4994463;28;20057;-89
2021/12/14 00:44:06;;;;;;;0.20;0.20;;;;;;;6.59;100.00;101812.28;5008526;28;20058;-87
2021/12/14 00:46:37;;;;;;;0.20;0.20;;;;;;;6.67;100.00;101821.16;4996798;28;20053;-88
2021/12/14 00:49:06;;;;;;;0.20;0.20;;;;;;;6.66;100.00;101820.34;4995990;28;20050;-87
2021/12/14 00:51:34;;;;;;;0.30;0.30;;;;;;;6.66;100.00;101814.94;4995472;28;20490;-89
2021/12/14 00:54:12;;;;;;;0.38;0.38;;;;;;;6.66;100.00;101817.63;4999466;28;20042;-88
2021/12/14 00:56:48;;;;;;;0.30;0.30;;;;;;;6.63;100.00;101815.38;4996331;28;20054;-89
2021/12/14 00:59:19;;;;;;;0.20;0.20;;;;;;;6.68;100.00;101817.41;4993277;28;20426;-88
2021/12/14 01:01:56;;;;;;;0.20;0.20;;;;;;;6.59;100.00;101796.06;4994827;28;20061;-87
2021/12/14 01:04:33;;;;;;;0.20;0.20;;;;;;;6.62;100.00;101811.03;4998590;28;20684;-87
2021/12/14 01:07:10;;;;;;;0.30;0.30;;;;;;;6.68;100.00;101823.63;4994588;28;20058;-86
2021/12/14 01:09:46;;;;;;;0.20;0.20;;;;;;;6.62;100.00;101819.94;4996165;28;20034;-88
2021/12/14 01:12:28;;;;;;;0.30;0.30;;;;;;;6.64;100.00;101822.44;4995558;28;20046;-86
2021/12/14 01:15:23;;;;;;;0.20;0.20;;;;;;;6.68;100.00;101817.41;4994456;28;20049;-88
2021/12/14 01:18:14;;;;;;;0.30;0.30;;;;;;;6.64;100.00;101819.72;4997116;28;20051;-87
2021/12/14 01:20:50;;;;;;;0.30;0.30;;;;;;;6.60;100.00;101824.78;4995521;28;20049;-90
2021/12/14 01:23:30;;;;;;;0.30;0.30;;;;;;;6.64;100.00;101831.38;4990510;28;20056;-89
2021/12/14 01:26:09;;;;;;;0.30;0.30;;;;;;;6.57;100.00;101829.78;4993482;28;20053;-88
2021/12/14 01:28:38;;;;;;;0.30;0.30;;;;;;;6.62;100.00;101840.78;4992976;28;20046;-89
2021/12/14 01:31:20;;;;;;;0.30;0.30;;;;;;;6.56;100.00;101838.94;4989660;28;20050;-86
2021/12/14 01:33:59;;;;;;;0.28;0.28;;;;;;;6.59;100.00;101835.81;4993383;28;20974;-88
2021/12/14 01:36:41;;;;;;;0.30;0.30;;;;;;;6.53;100.00;101837.53;5006169;28;20050;-88
2021/12/14 01:39:45;;;;;;;0.20;0.20;;;;;;;6.54;100.00;101835.66;4997021;28;20046;-87
2021/12/14 01:42:17;;;;;;;0.25;0.25;;;;;;;6.54;100.00;101820.25;4995773;28;20050;-89
2021/12/14 01:44:56;;;;;;;0.30;0.30;;;;;;;6.66;100.00;101820.34;4994855;28;20054;-88
2021/12/14 01:47:39;;;;;;;0.20;0.20;;;;;;;6.56;100.00;101814.59;5003730;28;20049;-87
2021/12/14 01:50:40;;;;;;;0.10;0.10;;;;;;;6.65;100.00;101813.28;4992845;28;20054;-87
2021/12/14 01:53:26;;;;;;;0.10;0.10;;;;;;;6.69;100.00;101814.47;4987654;28;20057;-88
2021/12/14 01:55:57;;;;;;;0.10;0.10;;;;;;;6.68;100.00;101803.88;4992066;28;20399;-88
2021/12/14 01:58:35;;;;;;;0.10;0.10;;;;;;;6.64;100.00;101792.66;5003750;28;20054;-87
2021/12/14 02:01:14;;;;;;;0.15;0.10;;;;;;;6.61;100.00;101796.66;4992548;28;20054;-87
2021/12/14 02:03:51;;;;;;;0.03;0.03;;;;;;;6.63;100.00;101804.56;5000007;28;20057;-87
2021/12/14 02:06:30;;;;;;;0.00;0.00;;;;;;;6.62;100.00;101800.19;4990326;28;20054;-87
2021/12/14 02:09:08;;;;;;;0.00;0.00;;;;;;;6.64;100.00;101801.63;4993086;28;20043;-88
2021/12/14 02:11:46;;;;;;;0.10;0.10;;;;;;;6.59;100.00;101798.78;4994452;28;20062;-88
2021/12/14 02:14:20;;;;;;;;;;;;;;;6.62;100.00;101797.50;4991696;28;20047;-89
2021/12/14 02:16:57;;;;;;;0.20;0.20;;;;;;;6.52;100.00;101787.22;5020386;28;19926;-89
2021/12/14 02:19:31;;;;;;;0.35;0.35;;;;;;;6.54;100.00;101787.78;4991938;28;20053;-89
2021/12/14 02:22:08;;;;;;;0.30;0.30;;;;;;;6.51;100.00;101779.31;4990035;28;20058;-88
2021/12/14 02:24:39;;;;;;;0.25;0.25;;;;;;;6.61;100.00;101764.19;4991558;28;20050;-88
2021/12/14 02:27:13;;;;;;;0.30;0.30;;;;;;;6.68;100.00;101749.78;4991245;28;20045;-86
2021/12/14 02:29:45;;;;;;;0.20;0.20;;;;;;;6.68;100.00;101757.91;4991258;28;20050;-86
2021/12/14 02:32:21;;;;;;;0.20;0.20;;;;;;;6.64;100.00;101763.75;4996366;28;20045;-88
2021/12/14 02:35:00;;;;;;;0.30;0.30;;;;;;;6.54;100.00;101749.94;4995110;28;20046;-87
2021/12/14 02:37:39;;;;;;;0.30;0.30;;;;;;;6.51;100.00;101746.88;5024399;28;20055;-87
2021/12/14 02:40:18;;;;;;;0.20;0.20;;;;;;;6.54;100.00;101749.13;5025272;28;20042;-87
2021/12/14 02:42:53;;;;;;;0.20;0.20;;;;;;;6.48;100.00;101731.91;5003985;28;20419;-86
2021/12/14 02:45:23;;;;;;;0.25;0.25;;;;;;;6.54;100.00;101724.78;5005925;28;20056;-89
2021/12/14 02:47:52;;;;;;;0.20;0.20;;;;;;;6.50;100.00;101727.09;4991187;28;20413;-87
2021/12/14 02:50:26;;;;;;;0.30;0.30;;;;;;;6.45;100.00;101722.38;4989530;28;20604;-88
2021/12/14 02:53:01;;;;;;;0.20;0.20;;;;;;;6.53;100.00;101715.00;4985162;28;20062;-88
2021/12/14 02:55:35;;;;;;;0.20;0.20;;;;;;;6.48;100.00;101704.88;4992094;28;20676;-86
2021/12/14 02:58:09;;;;;;;0.30;0.30;;;;;;;6.44;100.00;101703.69;4994913;28;20054;-86
2021/12/14 03:00:47;;;;;;;0.20;0.20;;;;;;;6.50;100.00;101715.47;4988948;28;20055;-87
2021/12/14 03:03:21;;;;;;;0.28;0.28;;;;;;;6.46;100.00;101707.81;4983137;28;20057;-89
2021/12/14 03:05:58;;;;;;;0.30;0.30;;;;;;;6.49;100.00;101694.88;4996622;28;20057;-88
2021/12/14 03:08:37;;;;;;;;;;;;;;;6.57;100.00;101711.63;4991845;28;20046;-87
2021/12/14 03:11:11;;;;;;;0.30;0.30;;;;;;;6.56;100.00;101722.66;4993977;28;19926;-88
2021/12/14 03:13:48;;;;;;;0.20;0.20;;;;;;;6.50;100.00;101721.69;4989118;28;20101;-89
2021/12/14 03:16:26;;;;;;;0.30;0.30;;;;;;;6.56;100.00;101723.50;4994855;28;20503;-87
2021/12/14 03:18:57;;;;;;;0.30;0.30;;;;;;;6.58;100.00;101732.19;4990678;28;20046;-87
2021/12/14 03:21:28;;;;;;;0.25;0.25;;;;;;;6.58;100.00;101720.56;4992021;28;20050;-88
2021/12/14 03:24:06;;;;;;;0.20;0.20;;;;;;;6.52;100.00;101716.91;4993122;28;20053;-88
2021/12/14 03:26:43;;;;;;;0.30;0.30;;;;;;;6.58;100.00;101721.38;4993678;28;20514;-88
2021/12/14 03:29:22;;;;;;;0.30;0.30;;;;;;;6.53;100.00;101728.53;4989367;28;20046;-87
2021/12/14 03:31:54;;;;;;;0.20;0.20;;;;;;;6.57;100.00;101729.72;4982718;28;20050;-87
2021/12/14 03:34:36;;;;;;;0.22;0.22;;;;;;;6.51;100.00;101731.47;4996818;28;20057;-88
2021/12/14 03:37:15;;;;;;;0.20;0.20;;;;;;;6.54;100.00;101725.59;4990359;28;20062;-89
2021/12/14 03:39:53;;;;;;;0.30;0.30;;;;;;;6.58;100.00;101715.97;4992635;28;20038;-88
2021/12/14 03:42:35;;;;;;;0.30;0.30;;;;;;;6.53;100.00;101731.22;4996900;28;20062;-88
2021/12/14 03:45:18;;;;;;;0.20;0.20;;;;;;;6.55;100.00;101727.25;4996259;28;20050;-88
2021/12/14 03:47:54;;;;;;;0.30;0.30;;;;;;;6.43;100.00;101712.84;4996038;28;20061;-88
2021/12/14 03:50:31;;;;;;;0.30;0.30;;;;;;;6.50;100.00;101720.88;4999207;28;20524;-89
2021/12/14 03:53:01;;;;;;;0.30;0.30;;;;;;;6.52;100.00;101725.00;5025016;28;20038;-89
2021/12/14 03:55:36;;;;;;;0.20;0.20;;;;;;;6.55;100.00;101721.03;4996235;28;20507;-88
2021/12/14 03:58:08;;;;;;;0.30;0.30;;;;;;;6.51;100.00;101717.13;4994652;28;20046;-87
2021/12/14 04:00:44;;;;;;;0.25;0.25;;;;;;;6.63;100.00;101728.84;5004926;28;20053;-87
2021/12/14 04:03:19;;;;;;;0.20;0.20;;;;;;;6.55;100.00;101721.84;5005163;28;20379;-88
2021/12/14 04:06:09;;;;;;;0.20;0.20;;;;;;;6.50;100.00;101712.75;4999493;28;20054;-87
2021/12/14 04:08:37;;;;;;;0.20;0.20;;;;;;;6.56;100.00;101723.50;4997484;28;20553;-88
2021/12/14 04:11:10;;;;;;;0.30;0.30;;;;;;;6.58;100.00;101721.38;5002239;28;20487;-87
2021/12/14 04:13:48;;;;;;;0.20;0.20;;;;;;;6.54;100.00;101725.59;4996778;28;20065;-88
2021/12/14 04:16:42;;;;;;;0.20;0.20;;;;;;;6.54;100.00;101714.78;4993014;28;20367;-87
2021/12/14 04:19:20;;;;;;;0.20;0.20;;;;;;;6.63;100.00;101718.81;4993560;28;20054;-88
2021/12/14 04:21:59;;;;;;;0.20;0.20;;;;;;;6.50;100.00;101716.28;4993656;28;20098;-87
2021/12/14 04:24:36;;;;;;;0.30;0.30;;;;;;;6.44;100.00;101718.00;4996465;28;20058;-87
2021/12/14 04:27:17;;;;;;;0.20;0.20;;;;;;;6.43;100.00;101715.53;4998186;28;20403;-87
2021/12/14 04:29:51;;;;;;;0.20;0.20;;;;;;;6.44;100.00;101718.00;4987426;28;20046;-88
2021/12/14 04:32:24;;;;;;;0.25;0.25;;;;;;;6.34;100.00;101711.47;4995538;28;20053;-87
2021/12/14 04:34:55;;;;;;;0.20;0.20;;;;;;;6.43;100.00;101713.66;5000952;28;20047;-88
2021/12/14 04:37:24;;;;;;;0.30;0.30;;;;;;;6.51;100.00;101709.00;4992847;28;20065;-88
2021/12/14 04:39:58;;;;;;;0.30;0.30;;;;;;;6.40;100.00;101695.19;4995974;28;20046;-89
2021/12/14 04:54:09;;;;;;;0.30;0.30;;;;;;;6.45;100.00;101684.53;4991295;28;20330;-85
2021/12/14 04:56:40;;;;;;;0.25;0.25;;;;;;;6.44;100.00;101688.28;4997602;28;20049;-86
2021/12/14 04:59:16;;;;;;;0.30;0.30;;;;;;;6.41;100.00;101694.13;4994927;28;20487;-86
2021/12/14 05:01:52;;;;;;;0.28;0.28;;;;;;;6.53;100.00;101698.78;4998473;28;20053;-89
2021/12/14 05:04:39;;;;;;;0.25;0.25;;;;;;;6.39;100.00;101685.41;5005038;28;20043;-87
2021/12/14 05:07:32;;;;;;;0.30;0.30;;;;;;;6.42;100.00;101695.78;4999162;28;20050;-86
2021/12/14 05:10:14;;;;;;;0.30;0.30;;;;;;;6.33;100.00;101686.34;4993104;28;20077;-88
2021/12/14 05:12:48;;;;;;;0.20;0.20;;;;;;;6.41;100.00;101698.72;4990245;28;20050;-87
2021/12/14 05:15:29;;;;;;;0.20;0.20;;;;;;;6.43;100.00;101696.59;4993909;28;20054;-86
2021/12/14 05:17:59;;;;;;;0.30;0.30;;;;;;;6.38;100.00;101683.78;4990823;28;20483;-87
2021/12/14 05:20:32;;;;;;;0.30;0.30;;;;;;;6.27;100.00;101684.53;4991259;28;20050;-88
2021/12/14 05:23:01;;;;;;;0.30;0.30;;;;;;;6.32;100.00;101687.38;4994024;28;20060;-85
2021/12/14 05:25:31;;;;;;;0.20;0.20;;;;;;;6.30;100.00;101684.91;5012865;28;20046;-86
2021/12/14 05:28:14;;;;;;;0.20;0.20;;;;;;;6.35;100.00;101691.50;5021814;28;20398;-88
2021/12/14 05:30:50;;;;;;;0.30;0.30;;;;;;;6.41;100.00;101682.50;5027910;28;20407;-87
2021/12/14 05:33:34;;;;;;;0.30;0.30;;;;;;;6.38;100.00;101686.50;4956681;28;1074547;-87
2021/12/14 05:36:26;;;;;;;0.22;0.22;;;;;;;6.27;100.00;101684.53;4991845;28;20494;-88
2021/12/14 05:39:00;;;;;;;0.25;0.25;;;;;;;6.34;100.00;101681.75;4994318;28;20514;-87
2021/12/14 05:44:54;;;;;;;0.30;0.30;;;;;;;6.32;100.00;101689.25;4952953;28;20493;-88
2021/12/14 05:47:29;;;;;;;0.30;0.30;;;;;;;6.33;100.00;101682.81;4986970;28;20411;-84
2021/12/14 05:50:08;;;;;;;0.20;0.20;;;;;;;6.37;100.00;101679.41;4991989;28;20061;-91
2021/12/14 05:52:37;;;;;;;0.20;0.20;;;;;;;6.35;100.00;101680.69;4992302;28;20054;-85
2021/12/14 05:55:20;;;;;;;0.20;0.20;;;;;;;6.45;100.00;101691.81;4991996;28;20050;-89
2021/12/14 05:57:49;;;;;;;0.20;0.20;;;;;;;6.33;100.00;101686.34;5021043;28;20057;-88
2021/12/14 06:00:18;;;;;;;0.30;0.30;;;;;;;6.27;100.00;101679.13;4995867;28;20437;-90
2021/12/14 06:03:01;;;;;;;0.30;0.30;;;;;;;6.22;100.00;101674.41;4991585;28;20054;-91
2021/12/14 06:05:32;;;;;;;0.20;0.20;;;;;;;6.20;100.00;101668.41;5009493;28;20392;-88
2021/12/14 06:08:01;;;;;;;0.28;0.28;;;;;;;6.19;100.00;101674.84;4992640;28;20046;-86
2021/12/14 06:10:31;;;;;;;0.30;0.30;;;;;;;6.15;100.00;101670.94;4991914;28;20054;-89
2021/12/14 06:12:59;;;;;;;0.20;0.20;;;;;;;6.09;100.00;101671.84;4992846;28;20057;-87
2021/12/14 06:15:31;;;;;;;0.30;0.30;;;;;;;5.98;100.00;101659.09;5002881;28;20399;-88
2021/12/14 06:18:13;;;;;;;0.20;0.20;;;;;;;6.08;100.00;101687.25;5017024;28;20055;-87
2021/12/14 06:20:54;;;;;;;0.30;0.30;;;;;;;6.11;100.00;101683.25;4992497;28;20046;-87
2021/12/14 06:23:32;;;;;;;0.30;0.30;;;;;;;6.04;100.00;101672.53;4995182;28;20414;-88
2021/12/14 06:26:22;;;;;;;0.28;0.28;;;;;;;6.11;100.00;101675.97;4992401;28;21543;-86
2021/12/14 06:29:04;;;;;;;0.30;0.30;;;;;;;6.08;100.00;101670.22;4991707;28;20041;-88
2021/12/14 06:31:33;;;;;;;0.22;0.22;;;;;;;6.11;100.00;101681.38;4995691;28;20044;-87
2021/12/14 06:34:13;;;;;;;0.28;0.28;;;;;;;6.07;100.00;101682.06;4993016;28;20054;-87
2021/12/14 06:37:29;;;;;;;0.20;0.20;;;;;;;6.13;100.00;101679.28;4991310;28;20505;-86
2021/12/14 06:40:10;;;;;;;0.30;0.30;;;;;;;6.17;100.00;101689.63;4992648;28;20065;-87
2021/12/14 06:42:41;;;;;;;0.30;0.30;;;;;;;6.29;100.00;101693.25;5001227;28;20042;-86
2021/12/14 06:45:15;;;;;;;0.20;0.20;;;;;;;6.13;100.00;101692.81;4992358;28;20050;-88
2021/12/14 06:47:52;;;;;;;0.30;0.30;;;;;;;6.05;100.00;101693.09;4997453;28;20050;-87
2021/12/14 06:50:26;;;;;;;0.20;0.20;;;;;;;6.08;100.00;101697.22;4995264;28;20057;-87
2021/12/14 06:52:58;;;;;;;0.30;0.30;;;;;;;6.10;100.00;101695.13;4991916;28;20057;-86
2021/12/14 06:55:51;;;;;;;0.20;0.20;;;;;;;6.18;100.00;101685.91;4991422;28;20054;-86
2021/12/14 06:58:52;;;;;;;0.20;0.20;;;;;;;6.18;100.00;101677.78;4991995;28;20137;-88
2021/12/14 07:01:33;;;;;;;0.20;0.20;;;;;;;6.23;100.00;101686.06;4985813;28;20990;-84
2021/12/14 07:04:10;;;;;;;0.30;0.30;;;;;;;6.17;100.00;101689.63;4999619;28;20066;-85
2021/12/14 07:06:45;;;;;;;0.20;0.20;;;;;;;6.22;100.00;101689.81;4998860;28;20069;-88
2021/12/14 07:09:17;;;;;;;0.30;0.30;;;;;;;5.99;100.00;101658.84;4984913;28;20057;-88
2021/12/14 07:11:49;;;;;;;0.30;0.30;;;;;;;6.29;100.00;101691.34;5017129;28;20054;-87
2021/12/14 07:14:33;;;;;;;0.30;0.30;;;;;;;6.22;100.00;101684.41;4982334;28;20081;-87
2021/12/14 07:17:09;;;;;;;0.30;0.30;;;;;;;6.34;100.00;101695.25;4983129;28;20073;-86
2021/12/14 07:19:43;;;;;;;0.25;0.25;;;;;;;6.30;100.00;101695.72;4986374;28;20533;-86
2021/12/14 07:22:38;;;;;;;0.20;0.20;;;;;;;6.24;100.00;101698.50;4984974;28;20050;-89
2021/12/14 07:25:12;;;;;;;0.22;0.22;;;;;;;6.18;100.00;101678.59;4986228;28;20065;-86
2021/12/14 07:27:44;;;;;;;0.30;0.30;;;;;;;6.14;100.00;101669.28;4983394;28;20046;-85
2021/12/14 07:30:21;;;;;;;0.30;0.30;;;;;;;6.06;100.00;101669.59;4984209;28;20054;-87
2021/12/14 07:32:53;;;;;;;0.28;0.28;;;;;;;6.21;100.00;101702.47;4985768;28;20529;-87
2021/12/14 07:35:45;;;;;;;0.28;0.28;;;;;;;6.16;100.00;101713.16;4984259;28;20050;-86
2021/12/14 07:38:50;;;;;;;0.25;0.25;;;;;;;6.18;100.00;101716.44;4967325;28;20414;-84
2021/12/14 07:41:27;;;;;;;0.20;0.20;;;;;;;6.01;100.00;101697.31;4968861;28;20061;-87
2021/12/14 07:43:59;;;;;;;0.30;0.30;;;;;;;5.97;100.00;101677.16;4980701;28;20051;-87
2021/12/14 07:46:39;;;;;;;0.30;0.30;;;;;;;5.97;100.00;101701.47;4983606;28;20054;-87
2021/12/14 07:49:18;;;;;;;0.20;0.20;;;;;;;6.08;100.00;101713.44;4976789;28;20062;-88
2021/12/14 07:51:55;;;;;;;0.20;0.20;;;;;;;5.88;100.00;101675.78;4977648;28;20058;-88
2021/12/14 07:54:33;;;;;;;0.30;0.30;;;;;;;6.15;100.00;101718.78;4979370;28;20065;-88
2021/12/14 07:57:07;;;;;;;0.25;0.25;;;;;;;6.08;100.00;101719.66;4982655;28;20054;-86
2021/12/14 07:59:39;;;;;;;0.30;0.30;;;;;;;6.03;100.00;101718.69;4983131;28;20062;-86
2021/12/14 08:02:17;;;;;;;0.28;0.28;;;;;;;6.03;100.00;101726.78;4985495;28;20066;-86
2021/12/14 08:04:53;;;;;;;0.20;0.20;;;;;;;5.95;100.00;101709.81;4981217;28;20062;-85
2021/12/14 08:07:25;;;;;;;0.25;0.25;;;;;;;5.96;100.00;101710.63;4979411;28;20046;-85
2021/12/14 08:10:06;;;;;;;0.28;0.28;;;;;;;6.08;100.00;101725.06;4985550;28;20058;-89
2021/12/14 08:12:40;;;;;;;0.20;0.20;;;;;;;6.11;100.00;101731.91;4989392;28;20069;-88
2021/12/14 08:15:18;;;;;;;0.22;0.22;;;;;;;6.12;100.00;101734.38;4981688;28;20050;-86
2021/12/14 08:17:58;;;;;;;0.30;0.30;;;;;;;6.10;100.00;101741.06;4986505;28;20054;-87
2021/12/14 08:20:27;;;;;;;0.30;0.30;;;;;;;6.12;100.00;101738.97;4979443;28;20058;-88
2021/12/14 08:22:58;;;;;;;0.20;0.20;;;;;;;6.13;100.00;101735.19;4981098;28;20066;-85
2021/12/14 08:25:33;;;;;;;0.30;0.30;;;;;;;6.03;100.00;101721.38;4982012;28;20054;-88
2021/12/14 08:28:07;;;;;;;0.28;0.28;;;;;;;5.94;100.00;101712.72;4987039;28;20411;-87
2021/12/14 08:30:38;;;;;;;0.22;0.22;;;;;;;5.99;100.00;101698.56;4984976;28;20054;-89
2021/12/14 08:33:19;;;;;;;0.30;0.30;;;;;;;5.73;100.00;101665.34;4983332;28;20054;-86
2021/12/14 08:35:47;;;;;;;0.28;0.28;;;;;;;6.12;100.00;101730.88;4983441;28;20054;-89
2021/12/14 08:38:18;;;;;;;0.20;0.20;;;;;;;6.08;100.00;101733.19;4981719;28;20050;-86
2021/12/14 08:41:00;;;;;;;0.20;0.20;;;;;;;6.12;100.00;101725.47;4983134;28;20062;-89
2021/12/14 08:43:34;;;;;;;0.30;0.30;;;;;;;6.09;100.00;101726.72;4982114;28;20058;-87
2021/12/14 08:46:07;;;;;;;0.30;0.30;;;;;;;6.12;100.00;101728.97;4984040;28;20065;-86
2021/12/14 08:48:45;;;;;;;0.20;0.20;;;;;;;6.13;100.00;101730.63;4979994;28;20054;-87
2021/12/14 08:51:24;;;;;;;0.20;0.20;;;;;;;6.15;100.00;101718.78;4979709;28;20057;-87
2021/12/14 08:53:57;;;;;;;0.30;0.30;;;;;;;6.16;100.00;101731.22;4983770;28;20046;-87
2021/12/14 08:56:38;;;;;;;0.20;0.20;;;;;;;6.23;100.00;101730.13;4984831;28;20058;-88
2021/12/14 08:59:07;;;;;;;0.30;0.30;;;;;;;6.15;100.00;101724.19;4982841;28;20038;-86
2021/12/14 09:01:43;;;;;;;0.20;0.20;;;;;;;6.08;100.00;101700.75;4989397;28;20054;-89
2021/12/14 09:04:16;;;;;;;0.30;0.30;;;;;;;6.22;100.00;101730.34;4990429;28;20066;-90
2021/12/14 09:06:47;;;;;;;0.28;0.28;;;;;;;6.26;100.00;101721.56;4984134;28;20046;-88
2021/12/14 09:09:22;;;;;;;0.20;0.20;;;;;;;6.43;100.00;101737.16;4986013;28;20058;-87
2021/12/14 09:12:04;;;;;;;0.30;0.30;;;;;;;6.35;100.00;101740.19;4986746;28;20523;-87
2021/12/14 09:14:32;;;;;;;0.20;0.20;;;;;;;6.25;100.00;101730.69;5020030;28;20065;-87
2021/12/14 09:17:03;;;;;;;0.30;0.30;;;;;;;6.38;100.00;101739.72;4981543;28;20054;-86
2021/12/14 09:19:41;;;;;;;0.22;0.22;;;;;;;6.20;100.00;101719.75;4982259;28;20061;-87
2021/12/14 09:22:14;;;;;;;0.28;0.28;;;;;;;6.40;100.00;101734.94;4983704;28;20054;-88
2021/12/14 09:24:43;;;;;;;0.30;0.30;;;;;;;6.49;100.00;101733.56;4984483;28;20096;-84
2021/12/14 09:27:20;;;;;;;0.28;0.28;;;;;;;6.39;100.00;101725.97;4981074;28;20050;-87
2021/12/14 09:29:55;;;;;;;0.20;0.20;;;;;;;6.36;100.00;101718.31;4983985;28;20061;-85
2021/12/14 09:32:27;;;;;;;0.30;0.30;;;;;;;6.30;100.00;101717.34;4982968;28;20058;-87
2021/12/14 09:35:01;;;;;;;;;;;;;;;6.41;100.00;101725.78;4984297;28;20912;-87
2021/12/14 09:37:31;;;;;;;0.20;0.20;;;;;;;6.33;100.00;101726.88;4986023;28;19929;-86
2021/12/14 09:40:12;;;;;;;0.30;0.30;;;;;;;6.41;100.00;101732.00;4982337;28;21171;-85
2021/12/14 09:42:48;;;;;;;0.20;0.20;;;;;;;6.41;100.00;101737.41;4977957;28;20061;-86
2021/12/14 09:45:25;;;;;;;0.30;0.30;;;;;;;6.49;100.00;101730.03;4980836;28;20050;-85
2021/12/14 09:47:59;;;;;;;0.28;0.28;;;;;;;6.57;100.00;101735.13;4980257;28;20054;-85
2021/12/14 09:50:36;;;;;;;0.30;0.30;;;;;;;6.47;100.00;101735.66;4977018;28;20406;-85
2021/12/14 09:53:13;;;;;;;0.20;0.20;;;;;;;6.50;100.00;101740.63;4980657;28;20451;-85
2021/12/14 09:55:49;;;;;;;0.20;0.20;;;;;;;6.49;100.00;101740.84;4978468;28;20065;-85
2021/12/14 09:58:29;;;;;;;0.30;0.30;;;;;;;6.54;100.00;101746.41;4975158;28;20137;-85
2021/12/14 10:01:08;;;;;;;0.30;0.30;;;;;;;6.52;100.00;101753.91;4976677;28;20045;-84
2021/12/14 10:03:43;;;;;;;0.30;0.30;;;;;;;6.64;100.00;101746.69;4978879;28;20855;-85
2021/12/14 10:06:15;;;;;;;0.20;0.20;;;;;;;6.51;100.00;101752.28;4975848;28;20054;-85
2021/12/14 10:08:53;;;;;;;0.22;0.22;;;;;;;6.60;100.00;101751.75;4975274;28;20050;-85
2021/12/14 10:11:41;;;;;;;0.30;0.30;;;;;;;6.73;100.00;101739.91;4978103;28;20054;-84
2021/12/14 10:14:18;;;;;;;0.30;0.30;;;;;;;6.68;100.00;101752.47;4981002;28;20053;-85
2021/12/14 10:16:48;;;;;;;0.30;0.30;;;;;;;6.78;100.00;101744.63;4976829;28;20058;-85
2021/12/14 10:19:24;;;;;;;0.20;0.20;;;;;;;6.80;100.00;101742.53;4978941;28;20412;-85
2021/12/14 10:22:02;;;;;;;0.30;0.30;;;;;;;6.69;100.00;101746.84;4976940;28;20073;-85
2021/12/14 10:24:36;;;;;;;;;;;;;;;6.75;100.00;101739.69;4977333;28;20054;-84
2021/12/14 10:27:10;;;;;;;0.30;0.30;;;;;;;6.72;100.00;101743.69;4975049;28;19930;-85
2021/12/14 10:29:46;;;;;;;0.30;0.30;;;;;;;6.75;100.00;101745.94;4978131;28;20516;-87
2021/12/14 10:32:18;;;;;;;0.30;0.30;;;;;;;6.75;100.00;101743.25;4978751;28;20065;-85
2021/12/14 10:34:54;;;;;;;0.30;0.30;;;;;;;6.74;100.00;101738.88;4977718;28;20551;-84
2021/12/14 10:37:54;;;;;;;0.40;0.30;;;;;;;6.77;100.00;101743.81;4981450;28;20538;-84
2021/12/14 10:43:31;;;;;;;0.22;0.22;;;;;;;6.80;100.00;101747.97;4957092;28;20058;-84
2021/12/14 10:46:09;;;;;;;0.20;0.20;;;;;;;6.74;100.00;101741.59;4972922;28;20076;-86
2021/12/14 10:48:41;;;;;;;0.30;0.30;;;;;;;6.70;100.00;101740.38;4971167;28;21554;-87
2021/12/14 10:51:17;;;;;;;0.20;0.20;;;;;;;6.72;100.00;101737.44;4970746;28;20073;-85
2021/12/14 10:53:54;;;;;;;0.30;0.30;;;;;;;6.77;100.00;101735.72;4971016;28;20054;-86
2021/12/14 10:56:31;;;;;;;0.30;0.30;;;;;;;6.74;100.00;101730.75;4971059;28;21620;-84
2021/12/14 10:59:07;;;;;;;0.30;0.30;;;;;;;6.84;100.00;101734.81;4971666;28;20057;-85
2021/12/14 11:01:48;;;;;;;0.20;0.20;;;;;;;6.75;100.00;101742.41;4970952;28;20042;-87
2021/12/14 11:04:26;;;;;;;0.30;0.30;;;;;;;6.79;100.00;101743.59;4973862;28;20073;-83
2021/12/14 11:07:02;;;;;;;0.20;0.20;;;;;;;6.91;100.00;101752.59;4978499;28;20054;-85
2021/12/14 11:09:42;;;;;;;0.25;0.25;;;;;;;6.80;100.00;101756.88;4969863;28;20507;-86
2021/12/14 11:12:18;;;;;;;0.30;0.30;;;;;;;6.78;100.00;101744.63;4974675;28;21311;-83
2021/12/14 11:14:54;;;;;;;0.30;0.30;;;;;;;6.84;100.00;101749.16;4975050;28;20431;-84
2021/12/14 11:20:24;;;;;;;0.30;0.30;;;;;;;6.80;100.00;101756.88;4972214;28;20058;-84
2021/12/14 11:22:56;;;;;;;0.20;0.20;;;;;;;6.91;100.00;101766.13;4976516;28;20058;-86
2021/12/14 11:25:32;;;;;;;0.30;0.30;;;;;;;6.83;100.00;101752.09;4969804;28;20069;-84
2021/12/14 11:28:08;;;;;;;0.30;0.30;;;;;;;6.87;100.00;101758.69;4969224;28;20561;-87
2021/12/14 11:30:45;;;;;;;0.30;0.30;;;;;;;6.83;100.00;101755.63;4970365;28;20038;-86
2021/12/14 11:33:19;;;;;;;0.30;0.30;;;;;;;6.83;100.00;101765.63;4969798;28;20288;-84
2021/12/14 11:35:56;;;;;;;0.20;0.20;;;;;;;6.93;100.00;101766.72;4973043;28;20042;-87
2021/12/14 11:38:37;;;;;;;0.20;0.20;;;;;;;7.02;100.00;101774.53;4973615;28;20058;-85
2021/12/14 11:41:31;;;;;;;0.30;0.30;;;;;;;6.98;100.00;101777.69;4979250;28;20061;-86
2021/12/14 11:44:12;;;;;;;0.30;0.30;;;;;;;6.94;100.00;101770.25;4973303;28;20082;-85
2021/12/14 11:47:04;;;;;;;0.30;0.30;;;;;;;6.94;100.00;101768.38;4974989;28;20054;-86
2021/12/14 11:49:53;;;;;;;0.20;0.20;;;;;;;6.88;100.00;101788.22;4970210;28;20058;-84
2021/12/14 11:52:50;;;;;;;0.30;0.30;;;;;;;6.90;100.00;101788.00;4979386;28;20507;-85
2021/12/14 11:55:36;;;;;;;;;;;;;;;6.88;100.00;101784.72;4975509;28;20069;-85
2021/12/14 11:58:09;;;;;;;0.25;0.25;;;;;;;6.85;100.00;101787.84;4973903;28;19933;-85
2021/12/14 12:00:39;;;;;;;0.30;0.30;;;;;;;6.84;100.00;101780.81;4981861;28;20053;-85
2021/12/14 12:03:36;;;;;;;0.25;0.25;;;;;;;6.86;100.00;101790.31;4975222;28;20396;-85
2021/12/14 12:06:34;;;;;;;0.20;0.20;;;;;;;6.80;100.00;101778.53;4979209;28;20058;-86
2021/12/14 12:09:29;;;;;;;0.30;0.30;;;;;;;6.92;100.00;101800.25;4976145;28;20070;-86
2021/12/14 12:12:08;;;;;;;0.30;0.30;;;;;;;6.90;100.00;101788.00;4982883;28;20057;-86
2021/12/14 12:14:44;;;;;;;0.30;0.30;;;;;;;6.88;100.00;101779.31;4977075;28;20632;-86
2021/12/14 12:17:24;;;;;;;0.20;0.20;;;;;;;6.83;100.00;101777.25;4977054;28;20061;-84
2021/12/14 12:20:10;;;;;;;0.30;0.30;;;;;;;6.85;100.00;101769.75;4976526;28;20963;-84
2021/12/14 12:22:47;;;;;;;0.30;0.30;;;;;;;6.90;100.00;101763.66;4976677;28;20069;-87
2021/12/14 12:25:18;;;;;;;0.30;0.30;;;;;;;6.91;100.00;101766.13;4973783;28;20054;-85
2021/12/14 12:27:49;;;;;;;0.22;0.22;;;;;;;6.86;100.00;101763.25;4980487;28;20050;-86
2021/12/14 12:30:37;;;;;;;0.30;0.30;;;;;;;6.92;100.00;101758.84;4977565;28;20054;-88
2021/12/14 12:33:17;;;;;;;0.30;0.30;;;;;;;6.91;100.00;101766.13;4976256;28;20062;-84
2021/12/14 12:35:55;;;;;;;0.30;0.30;;;;;;;6.91;100.00;101771.53;4973978;28;20061;-87
2021/12/14 12:38:41;;;;;;;0.30;0.30;;;;;;;6.96;100.00;101765.44;4973379;28;20423;-86